Time;durP1;ratioP1;P1;durP2;ratioP2;P2;SDS_P1;SDS_P2;PMS_P1;PMS_P2;Temp;Humidity;BMP_temperature;BMP_pressure;BME280_temperature;BME280_humidity;BME280_pressure;Samples;Min_cycle;Max_cycle;Signal;HPM_P1;HPM_P2
2022/03/07 00:00:36;;;;;;;66.90;49.60;;;17.90;45.30;;;;;;4984505;28;91314;-72
2022/03/07 00:03:02;;;;;;;65.97;49.90;;;17.80;45.30;;;;;;4991123;28;90427;-71
2022/03/07 00:05:28;;;;;;;66.38;49.83;;;17.80;45.30;;;;;;4977781;28;92685;-71
2022/03/07 00:07:54;;;;;;;68.78;49.95;;;17.80;45.30;;;;;;4987776;28;91906;-71
2022/03/07 00:10:19;;;;;;;66.15;49.67;;;17.80;45.30;;;;;;4986906;28;89723;-72
2022/03/07 00:12:45;;;;;;;66.20;49.80;;;17.70;45.20;;;;;;4989479;28;88953;-71
2022/03/07 00:15:11;;;;;;;66.03;49.72;;;17.80;45.30;;;;;;4988345;28;90072;-71
2022/03/07 00:17:36;;;;;;;67.50;50.05;;;17.70;45.30;;;;;;4989495;28;92207;-71
2022/03/07 00:20:04;;;;;;;66.43;49.80;;;17.70;45.20;;;;;;4985728;28;91737;-71
2022/03/07 00:22:30;;;;;;;66.75;49.60;;;17.70;45.30;;;;;;4988546;28;90836;-70
2022/03/07 00:24:55;;;;;;;65.43;49.20;;;17.70;45.90;;;;;;4984460;28;91040;-71
2022/03/07 00:27:21;;;;;;;66.05;49.67;;;17.70;45.40;;;;;;4969099;28;92026;-71
2022/03/07 00:29:47;;;;;;;66.15;49.53;;;17.70;45.30;;;;;;4974471;27;90860;-71
2022/03/07 00:32:13;;;;;;;65.00;49.42;;;17.60;45.20;;;;;;4991424;28;90058;-71
2022/03/07 00:34:39;;;;;;;65.90;49.65;;;17.60;45.20;;;;;;4990376;28;90387;-71
2022/03/07 00:37:05;;;;;;;67.75;49.83;;;17.60;45.20;;;;;;4983846;28;90651;-71
2022/03/07 00:39:30;;;;;;;65.78;49.30;;;17.60;45.30;;;;;;4985736;28;89994;-71
2022/03/07 00:41:56;;;;;;;66.55;49.72;;;17.60;45.40;;;;;;4987389;28;90992;-71
2022/03/07 00:44:22;;;;;;;65.65;49.67;;;17.60;45.40;;;;;;4992224;28;90793;-71
2022/03/07 00:46:48;;;;;;;65.53;49.35;;;17.50;45.30;;;;;;4986888;28;92439;-71
2022/03/07 00:49:13;;;;;;;65.45;49.47;;;17.50;45.30;;;;;;4992878;28;89898;-71
2022/03/07 00:51:39;;;;;;;65.53;49.35;;;17.50;45.90;;;;;;4991303;28;89669;-71
2022/03/07 00:54:05;;;;;;;66.13;49.65;;;17.50;45.30;;;;;;4987301;28;91664;-74
2022/03/07 00:56:30;;;;;;;65.80;49.50;;;17.50;45.30;;;;;;4982943;28;90667;-73
2022/03/07 00:58:56;;;;;;;65.90;49.65;;;17.40;45.30;;;;;;4989559;28;89476;-73
2022/03/07 01:01:21;;;;;;;65.72;49.42;;;17.40;45.40;;;;;;4985673;28;90438;-74
2022/03/07 01:03:47;;;;;;;66.40;49.53;;;17.40;45.40;;;;;;4985780;28;90351;-74
2022/03/07 01:06:13;;;;;;;65.70;49.75;;;17.30;45.40;;;;;;4987875;28;92679;-74
2022/03/07 01:08:39;;;;;;;64.25;48.90;;;17.40;45.40;;;;;;4991726;28;91518;-74
2022/03/07 01:11:05;;;;;;;67.38;49.53;;;17.30;45.40;;;;;;4991521;28;89817;-73
2022/03/07 01:13:31;;;;;;;66.15;49.55;;;17.30;45.40;;;;;;4990953;28;90283;-74
2022/03/07 01:15:57;;;;;;;66.13;49.58;;;17.30;45.30;;;;;;4989801;28;90565;-73
2022/03/07 01:18:23;;;;;;;64.95;49.13;;;17.30;45.40;;;;;;4986412;28;95160;-73
2022/03/07 01:20:48;;;;;;;64.55;49.10;;;17.30;45.40;;;;;;4986599;28;90237;-74
2022/03/07 01:23:14;;;;;;;64.97;49.15;;;17.30;45.50;;;;;;4993236;28;89887;-73
2022/03/07 01:25:40;;;;;;;64.90;49.28;;;17.30;45.50;;;;;;4989503;28;89330;-74
2022/03/07 01:28:06;;;;;;;65.15;49.13;;;17.20;45.40;;;;;;4981560;28;90029;-73
2022/03/07 01:30:32;;;;;;;65.28;49.28;;;17.20;45.40;;;;;;4997710;28;90419;-73
2022/03/07 01:32:58;;;;;;;64.85;49.22;;;17.20;45.30;;;;;;4990454;28;91795;-73
2022/03/07 01:35:24;;;;;;;64.55;48.97;;;17.20;45.30;;;;;;4985375;28;91345;-73
2022/03/07 01:37:50;;;;;;;64.65;49.10;;;17.20;45.30;;;;;;4992436;28;91908;-74
2022/03/07 01:40:15;;;;;;;65.78;49.55;;;17.10;45.30;;;;;;4986249;28;89874;-73
2022/03/07 01:42:41;;;;;;;65.50;49.22;;;17.10;45.30;;;;;;4988680;28;90505;-73
2022/03/07 01:45:19;;;;;;;64.57;49.13;;;17.10;45.30;;;;;;4994126;28;90972;-73
2022/03/07 01:47:46;;;;;;;64.90;49.45;;;17.10;45.40;;;;;;4982673;28;90134;-73
2022/03/07 01:50:15;;;;;;;65.88;49.40;;;17.00;45.50;;;;;;4989355;28;89190;-73
2022/03/07 01:52:43;;;;;;;64.43;49.30;;;17.00;45.40;;;;;;5003974;27;92248;-73
2022/03/07 01:55:11;;;;;;;65.22;49.47;;;17.00;45.40;;;;;;4981391;28;94210;-73
2022/03/07 01:57:38;;;;;;;65.50;49.33;;;17.00;45.40;;;;;;4969988;28;91249;-73
2022/03/07 02:00:10;;;;;;;65.35;49.67;;;17.00;45.40;;;;;;4989017;28;89866;-73
2022/03/07 02:02:36;;;;;;;64.70;49.20;;;17.00;45.30;;;;;;4992609;28;92356;-74
2022/03/07 02:05:04;;;;;;;64.88;49.33;;;17.00;45.40;;;;;;4986515;28;89844;-73
2022/03/07 02:07:29;;;;;;;65.10;49.40;;;17.00;45.30;;;;;;4982198;28;90248;-73
2022/03/07 02:09:55;;;;;;;65.03;49.40;;;17.00;45.40;;;;;;4983968;28;90648;-73
2022/03/07 02:12:20;;;;;;;66.03;49.47;;;16.90;45.40;;;;;;4989531;28;91295;-73
2022/03/07 02:14:46;;;;;;;64.50;48.92;;;16.90;45.40;;;;;;4991580;28;91276;-73
2022/03/07 02:17:12;;;;;;;65.05;49.58;;;16.90;45.40;;;;;;4982050;28;90186;-75
2022/03/07 02:19:37;;;;;;;65.30;49.33;;;16.90;45.40;;;;;;4992094;28;89816;-74
2022/03/07 02:22:04;;;;;;;65.53;49.28;;;16.90;45.40;;;;;;4991075;28;92446;-73
2022/03/07 02:24:30;;;;;;;65.10;49.38;;;16.90;45.40;;;;;;4983451;28;92691;-73
2022/03/07 02:27:00;;;;;;;64.45;48.95;;;16.90;45.30;;;;;;4981850;28;91002;-73
2022/03/07 02:29:26;;;;;;;65.32;49.35;;;16.90;45.40;;;;;;4979952;28;90687;-74
2022/03/07 02:31:52;;;;;;;65.03;49.38;;;16.90;45.40;;;;;;4990222;28;89884;-73
2022/03/07 02:34:18;;;;;;;64.32;49.15;;;16.90;45.40;;;;;;4978638;28;91648;-72
2022/03/07 02:36:44;;;;;;;64.32;49.13;;;16.80;45.30;;;;;;4982331;28;90524;-72
2022/03/07 02:39:10;;;;;;;64.38;49.28;;;16.80;45.30;;;;;;4992905;28;88885;-71
2022/03/07 02:41:37;;;;;;;64.47;49.15;;;16.90;45.30;;;;;;4989655;28;91199;-72
2022/03/07 02:44:03;;;;;;;64.40;49.47;;;16.90;45.30;;;;;;4980573;28;92875;-71
2022/03/07 02:46:29;;;;;;;64.13;49.10;;;16.90;45.10;;;;;;4988401;28;96621;-72
2022/03/07 02:48:55;;;;;;;64.60;49.13;;;17.00;45.20;;;;;;4985167;28;91234;-72
2022/03/07 02:51:20;;;;;;;65.10;49.17;;;17.00;45.00;;;;;;4991866;28;92520;-72
2022/03/07 02:53:46;;;;;;;64.88;49.30;;;17.10;45.10;;;;;;4983636;28;89694;-72
2022/03/07 02:56:12;;;;;;;64.70;49.28;;;17.10;45.00;;;;;;4982230;28;90721;-71
2022/03/07 02:58:37;;;;;;;64.75;49.35;;;17.20;44.90;;;;;;4984909;28;90757;-71
2022/03/07 03:01:03;;;;;;;64.15;48.92;;;17.20;44.80;;;;;;4991361;27;90323;-72
2022/03/07 03:03:29;;;;;;;64.90;49.17;;;17.20;44.70;;;;;;4985235;28;89798;-72
2022/03/07 03:05:54;;;;;;;64.32;49.15;;;17.30;44.60;;;;;;4992322;27;89358;-72
2022/03/07 03:08:22;;;;;;;64.80;49.35;;;17.30;44.40;;;;;;4984821;28;91263;-72
2022/03/07 03:10:52;;;;;;;65.18;48.90;;;17.30;44.40;;;;;;4981741;28;92274;-72
2022/03/07 03:13:20;;;;;;;63.85;48.67;;;17.30;44.30;;;;;;4989319;28;92597;-72
2022/03/07 03:15:46;;;;;;;63.80;48.80;;;17.30;44.30;;;;;;4985292;28;90518;-72
2022/03/07 03:18:12;;;;;;;64.45;49.10;;;17.30;44.20;;;;;;4988555;28;89709;-72
2022/03/07 03:20:38;;;;;;;63.70;49.22;;;17.40;44.30;;;;;;5000213;27;91899;-72
2022/03/07 03:23:04;;;;;;;65.30;49.15;;;17.30;44.10;;;;;;4986738;28;91348;-71
2022/03/07 03:25:29;;;;;;;64.22;49.15;;;17.40;44.10;;;;;;4986724;28;90411;-72
2022/03/07 03:27:55;;;;;;;63.70;48.63;;;17.40;44.10;;;;;;4973281;28;89222;-72
2022/03/07 03:30:21;;;;;;;64.30;49.00;;;17.40;44.10;;;;;;4956828;28;91124;-72
2022/03/07 03:32:46;;;;;;;65.43;49.33;;;17.30;44.00;;;;;;4969224;27;91763;-72
2022/03/07 03:35:12;;;;;;;65.13;48.97;;;17.30;44.00;;;;;;4960562;28;91652;-72
2022/03/07 03:37:38;;;;;;;63.97;49.15;;;17.30;44.10;;;;;;4958745;28;94282;-71
2022/03/07 03:40:06;;;;;;;63.53;48.67;;;17.30;44.20;;;;;;4958259;28;91292;-72
2022/03/07 03:42:31;;;;;;;64.43;49.03;;;17.30;44.20;;;;;;4958474;28;90997;-72
2022/03/07 03:44:57;;;;;;;64.70;49.00;;;17.30;44.10;;;;;;4965584;28;90283;-72
2022/03/07 03:47:23;;;;;;;65.63;49.00;;;17.20;44.00;;;;;;4967377;28;90725;-72
2022/03/07 03:49:48;;;;;;;64.82;49.00;;;17.30;44.00;;;;;;4964122;28;90997;-72
2022/03/07 03:52:14;;;;;;;63.50;48.70;;;17.20;44.00;;;;;;4976334;28;90031;-72
2022/03/07 03:54:40;;;;;;;66.78;49.20;;;17.30;44.10;;;;;;4961012;28;90264;-72
2022/03/07 03:57:05;;;;;;;64.43;48.95;;;17.20;44.10;;;;;;4958775;28;92488;-71
2022/03/07 03:59:34;;;;;;;63.40;48.88;;;17.20;44.10;;;;;;4968728;28;92289;-72
2022/03/07 04:02:00;;;;;;;64.40;49.17;;;17.10;44.10;;;;;;4950725;28;91525;-72
2022/03/07 04:04:26;;;;;;;63.85;49.05;;;17.10;44.20;;;;;;4951754;28;97179;-71
2022/03/07 04:06:52;;;;;;;64.07;48.97;;;17.10;44.20;;;;;;4971716;28;90433;-72
2022/03/07 04:09:19;;;;;;;64.15;49.22;;;17.10;44.20;;;;;;4960455;28;91264;-71
2022/03/07 04:11:45;;;;;;;63.22;48.75;;;17.10;44.20;;;;;;4980712;28;93128;-72
2022/03/07 04:14:12;;;;;;;64.25;49.10;;;17.10;44.20;;;;;;4957243;28;92176;-71
2022/03/07 04:16:38;;;;;;;63.30;48.70;;;17.00;44.20;;;;;;4961363;28;91625;-72
2022/03/07 04:19:08;;;;;;;64.65;48.83;;;17.00;44.30;;;;;;4954815;28;92157;-72
2022/03/07 04:21:35;;;;;;;63.15;48.75;;;17.00;44.30;;;;;;4976418;28;92279;-72
2022/03/07 04:24:01;;;;;;;64.07;48.75;;;17.00;44.40;;;;;;4954329;28;92221;-72
2022/03/07 04:26:27;;;;;;;64.15;48.83;;;17.00;44.40;;;;;;4959535;28;90759;-71
2022/03/07 04:28:53;;;;;;;63.50;48.85;;;16.90;44.30;;;;;;4979706;28;91006;-71
2022/03/07 04:31:19;;;;;;;63.88;48.83;;;16.90;44.30;;;;;;4970691;28;90571;-72
2022/03/07 04:33:44;;;;;;;64.70;49.17;;;16.90;44.30;;;;;;4972533;28;91294;-71
2022/03/07 04:36:10;;;;;;;63.72;48.80;;;16.90;44.90;;;;;;4971458;28;90225;-72
2022/03/07 04:38:36;;;;;;;65.03;48.85;;;16.90;44.30;;;;;;4961382;28;93643;-72
2022/03/07 04:41:02;;;;;;;64.30;49.20;;;16.80;44.30;;;;;;4988760;28;90727;-72
2022/03/07 04:43:27;;;;;;;64.28;49.15;;;16.80;44.30;;;;;;4967906;28;91114;-72
2022/03/07 04:45:53;;;;;;;63.65;48.88;;;16.80;44.30;;;;;;4974950;28;94289;-72
2022/03/07 04:48:20;;;;;;;63.65;48.75;;;16.80;44.40;;;;;;4965442;28;91418;-71
2022/03/07 04:50:46;;;;;;;63.60;49.25;;;16.80;44.40;;;;;;4954203;28;92295;-72
2022/03/07 04:53:11;;;;;;;63.65;49.03;;;16.80;44.30;;;;;;4962929;28;91351;-72
2022/03/07 04:55:37;;;;;;;63.17;48.63;;;16.80;44.40;;;;;;4974346;28;90600;-72
2022/03/07 04:58:03;;;;;;;63.67;48.92;;;16.80;44.40;;;;;;4964093;28;91920;-72
2022/03/07 05:00:30;;;;;;;63.80;49.20;;;16.80;44.80;;;;;;4962274;28;91578;-72
2022/03/07 05:02:56;;;;;;;64.18;49.30;;;16.80;44.90;;;;;;4948601;28;92115;-72
2022/03/07 05:05:21;;;;;;;63.97;49.08;;;16.80;45.00;;;;;;4949404;28;90359;-72
2022/03/07 05:07:50;;;;;;;64.50;49.60;;;16.90;44.90;;;;;;4949261;28;90599;-72
2022/03/07 05:10:17;;;;;;;64.57;49.15;;;17.00;44.60;;;;;;4948854;28;92747;-72
2022/03/07 05:12:43;;;;;;;63.80;48.80;;;17.00;44.60;;;;;;4940700;28;92846;-72
2022/03/07 05:15:09;;;;;;;62.92;48.55;;;17.10;44.90;;;;;;4952562;28;91233;-72
2022/03/07 05:17:48;;;;;;;63.28;49.05;;;17.20;44.70;;;;;;4967129;28;92526;-72
2022/03/07 05:20:15;;;;;;;65.10;49.70;;;17.30;44.30;;;;;;4955148;28;92831;-72
2022/03/07 05:22:44;;;;;;;63.10;49.00;;;17.30;44.10;;;;;;4972968;28;94157;-72
2022/03/07 05:25:12;;;;;;;64.05;49.30;;;17.30;44.10;;;;;;4958737;28;90415;-72
2022/03/07 05:27:38;;;;;;;62.90;48.88;;;17.40;44.00;;;;;;4971230;28;93962;-73
2022/03/07 05:30:05;;;;;;;64.32;49.35;;;17.40;44.00;;;;;;4964696;28;89760;-72
2022/03/07 05:32:31;;;;;;;64.05;49.40;;;17.40;44.00;;;;;;4972053;28;91187;-72
2022/03/07 05:34:56;;;;;;;63.15;48.97;;;17.50;43.90;;;;;;4984564;28;95704;-71
2022/03/07 05:37:22;;;;;;;66.07;49.55;;;17.50;43.70;;;;;;4959685;28;91466;-72
2022/03/07 05:39:47;;;;;;;64.43;49.67;;;17.50;43.70;;;;;;4966082;28;92346;-72
2022/03/07 05:42:13;;;;;;;64.55;49.33;;;17.60;43.60;;;;;;4969601;28;91810;-71
2022/03/07 05:44:39;;;;;;;66.10;49.15;;;17.60;43.50;;;;;;4984671;27;92926;-72
2022/03/07 05:47:04;;;;;;;70.57;49.08;;;17.60;43.50;;;;;;4972016;28;91692;-72
2022/03/07 05:49:30;;;;;;;68.32;49.65;;;17.70;44.50;;;;;;4963176;28;90522;-72
2022/03/07 05:51:55;;;;;;;68.70;49.92;;;17.70;44.30;;;;;;4989421;28;90147;-71
2022/03/07 05:54:21;;;;;;;66.45;49.55;;;17.80;44.10;;;;;;4983999;28;94907;-71
2022/03/07 05:56:47;;;;;;;69.70;49.63;;;17.80;44.20;;;;;;4991346;28;91691;-72
2022/03/07 05:59:12;;;;;;;70.85;49.15;;;17.90;44.40;;;;;;4983285;28;89548;-70
2022/03/07 06:01:38;;;;;;;68.45;49.45;;;18.00;44.50;;;;;;4982796;28;90908;-72
2022/03/07 06:04:04;;;;;;;68.72;49.75;;;18.00;44.50;;;;;;4978133;28;90493;-69
2022/03/07 06:06:30;;;;;;;67.25;49.63;;;18.00;44.30;;;;;;4988154;28;91539;-68
2022/03/07 06:08:56;;;;;;;69.05;49.70;;;18.00;44.30;;;;;;4988789;28;91840;-73
2022/03/07 06:11:21;;;;;;;65.90;49.28;;;18.10;44.40;;;;;;4979565;28;89633;-74
2022/03/07 06:13:47;;;;;;;70.75;49.58;;;18.10;44.20;;;;;;4981366;28;90509;-70
2022/03/07 06:16:13;;;;;;;70.43;50.05;;;18.10;44.40;;;;;;4981505;28;90476;-72
2022/03/07 06:18:39;;;;;;;73.95;49.97;;;18.20;44.70;;;;;;4968239;28;89763;-72
2022/03/07 06:21:05;;;;;;;75.50;50.45;;;18.20;44.70;;;;;;4967115;28;91674;-76
2022/03/07 06:23:31;;;;;;;71.20;50.35;;;18.20;44.90;;;;;;4962325;28;92544;-74
2022/03/07 06:25:57;;;;;;;77.68;50.47;;;18.20;44.80;;;;;;4975230;28;92574;-75
2022/03/07 06:28:23;;;;;;;84.18;53.25;;;18.20;44.70;;;;;;4979095;28;90784;-72
2022/03/07 06:30:48;;;;;;;80.22;53.78;;;18.30;44.90;;;;;;4980903;28;89931;-75
2022/03/07 06:33:16;;;;;;;86.50;54.20;;;18.30;44.90;;;;;;4992103;28;89994;-75
2022/03/07 06:35:42;;;;;;;90.35;54.90;;;18.30;45.00;;;;;;4985132;28;95465;-75
2022/03/07 06:38:07;;;;;;;92.97;54.72;;;18.30;44.60;;;;;;4980291;28;96085;-75
2022/03/07 06:40:33;;;;;;;84.72;54.67;;;18.30;44.40;;;;;;4991378;28;90592;-76
2022/03/07 06:43:00;;;;;;;88.85;54.53;;;18.30;44.20;;;;;;4986694;28;89137;-72
2022/03/07 06:45:28;;;;;;;86.53;54.60;;;18.30;43.90;;;;;;4967518;28;92336;-78
2022/03/07 06:47:53;;;;;;;90.82;54.70;;;18.30;43.60;;;;;;4982523;28;90165;-78
2022/03/07 06:50:19;;;;;;;88.28;54.42;;;18.30;43.40;;;;;;4976843;28;90736;-77
2022/03/07 06:52:45;;;;;;;83.90;54.00;;;18.30;43.20;;;;;;4983803;28;89769;-77
2022/03/07 06:55:12;;;;;;;81.07;53.58;;;18.30;43.20;;;;;;4975170;28;90847;-77
2022/03/07 06:57:39;;;;;;;79.07;53.47;;;18.20;43.10;;;;;;4987958;28;91264;-78
2022/03/07 07:00:06;;;;;;;77.93;53.28;;;18.20;42.80;;;;;;4982081;28;99382;-78
2022/03/07 07:02:32;;;;;;;79.00;54.05;;;18.20;42.60;;;;;;4971987;28;91115;-76
2022/03/07 07:04:58;;;;;;;76.95;53.03;;;18.20;42.50;;;;;;4976901;28;91194;-77
2022/03/07 07:07:24;;;;;;;75.55;52.70;;;18.20;42.50;;;;;;4975731;28;93447;-76
2022/03/07 07:09:49;;;;;;;74.78;52.92;;;18.10;42.30;;;;;;4971002;28;90031;-74
2022/03/07 07:12:15;;;;;;;74.97;53.00;;;18.10;42.10;;;;;;4985563;28;90562;-74
2022/03/07 07:14:40;;;;;;;76.45;53.08;;;18.10;41.90;;;;;;4987851;28;92444;-74
2022/03/07 07:17:06;;;;;;;75.28;52.35;;;18.10;41.70;;;;;;4978298;28;90797;-73
2022/03/07 07:19:32;;;;;;;71.55;52.45;;;18.10;41.70;;;;;;4981392;28;91634;-73
2022/03/07 07:21:57;;;;;;;75.72;52.40;;;18.10;41.60;;;;;;4970453;28;90778;-74
2022/03/07 07:24:23;;;;;;;74.22;52.25;;;18.10;41.50;;;;;;4978441;28;90957;-76
2022/03/07 07:26:48;;;;;;;74.80;52.83;;;18.10;41.20;;;;;;4972110;28;92943;-76
2022/03/07 07:29:14;;;;;;;72.40;52.05;;;18.20;41.00;;;;;;4971774;28;90733;-75
2022/03/07 07:31:39;;;;;;;77.95;52.47;;;18.20;40.70;;;;;;4971826;28;89588;-76
2022/03/07 07:34:05;;;;;;;73.43;51.90;;;18.30;40.40;;;;;;4974120;28;91571;-75
2022/03/07 07:36:31;;;;;;;73.63;52.33;;;18.40;40.10;;;;;;4954074;28;90767;-76
2022/03/07 07:38:56;;;;;;;73.32;51.92;;;18.50;39.80;;;;;;4972437;28;91370;-75
2022/03/07 07:41:22;;;;;;;70.45;51.83;;;18.60;39.70;;;;;;4968734;28;91284;-75
2022/03/07 07:43:49;;;;;;;70.95;51.95;;;18.70;39.50;;;;;;4975460;28;91218;-75
2022/03/07 07:46:15;;;;;;;70.22;52.05;;;18.70;39.30;;;;;;4965670;28;94243;-76
2022/03/07 07:48:41;;;;;;;71.35;52.30;;;18.80;39.00;;;;;;4966637;28;98383;-75
2022/03/07 07:51:07;;;;;;;71.25;52.00;;;18.80;38.70;;;;;;4951019;28;90427;-76
2022/03/07 07:53:35;;;;;;;72.95;52.40;;;18.80;38.40;;;;;;4960142;28;92112;-77
2022/03/07 07:56:02;;;;;;;74.85;52.00;;;18.90;38.30;;;;;;4985980;28;91112;-76
2022/03/07 07:58:27;;;;;;;74.38;52.13;;;18.90;38.60;;;;;;4973324;28;90621;-75
2022/03/07 08:00:53;;;;;;;77.35;52.53;;;18.90;39.20;;;;;;4973442;28;90152;-75
2022/03/07 08:03:18;;;;;;;78.82;52.40;;;18.90;39.50;;;;;;4976307;28;93957;-76
2022/03/07 08:05:48;;;;;;;79.50;53.15;;;19.00;39.80;;;;;;4961833;28;92318;-76
2022/03/07 08:08:14;;;;;;;76.93;52.45;;;18.90;40.10;;;;;;4979138;28;90307;-76
2022/03/07 08:10:40;;;;;;;75.38;52.28;;;18.90;40.30;;;;;;4982922;28;91691;-77
2022/03/07 08:13:06;;;;;;;76.95;52.78;;;19.00;40.50;;;;;;4969422;28;92221;-75
2022/03/07 08:15:32;;;;;;;78.28;52.65;;;19.00;40.60;;;;;;4988560;28;90150;-76
2022/03/07 08:17:57;;;;;;;73.32;52.53;;;19.00;40.90;;;;;;4968921;28;96301;-75
2022/03/07 08:20:24;;;;;;;76.95;52.05;;;19.00;40.50;;;;;;4981474;28;89936;-75
2022/03/07 08:22:50;;;;;;;73.30;52.20;;;19.00;40.80;;;;;;4983122;28;94528;-76
2022/03/07 08:25:16;;;;;;;74.57;52.33;;;19.00;40.70;;;;;;4987026;28;92228;-76
2022/03/07 08:27:42;;;;;;;75.13;52.05;;;19.00;40.80;;;;;;4989674;28;91443;-76
2022/03/07 08:30:12;;;;;;;75.55;51.78;;;19.00;40.70;;;;;;4977184;28;91252;-76
2022/03/07 08:32:40;;;;;;;75.68;51.88;;;19.00;41.00;;;;;;4969475;28;90311;-76
2022/03/07 08:35:07;;;;;;;76.72;52.03;;;18.90;41.00;;;;;;4963537;28;91811;-76
2022/03/07 08:37:33;;;;;;;74.45;51.90;;;18.90;41.10;;;;;;4985805;28;94272;-77
2022/03/07 08:39:59;;;;;;;74.43;51.63;;;18.90;41.30;;;;;;4982056;28;93879;-76
2022/03/07 08:42:25;;;;;;;71.55;51.25;;;18.90;41.40;;;;;;4978636;28;90092;-76
2022/03/07 08:44:53;;;;;;;72.35;51.30;;;18.90;41.50;;;;;;4992312;28;96159;-73
2022/03/07 08:47:19;;;;;;;74.93;51.40;;;18.80;41.20;;;;;;4986300;28;89887;-76
2022/03/07 08:49:45;;;;;;;71.28;50.88;;;18.80;41.10;;;;;;4991697;28;90691;-77
2022/03/07 08:52:15;;;;;;;72.30;51.33;;;18.70;40.80;;;;;;4993565;28;91293;-76
2022/03/07 08:54:44;;;;;;;71.43;50.70;;;18.70;40.60;;;;;;4986902;28;90801;-76
2022/03/07 08:57:10;;;;;;;71.05;50.70;;;18.70;41.00;;;;;;4993315;28;90498;-78
2022/03/07 08:59:36;;;;;;;68.85;50.90;;;18.60;41.00;;;;;;4991924;28;90642;-78
2022/03/07 09:02:03;;;;;;;69.72;50.90;;;18.70;41.40;;;;;;4986300;28;90746;-75
2022/03/07 09:04:29;;;;;;;72.57;51.13;;;18.70;41.40;;;;;;4974549;28;97615;-75
2022/03/07 09:06:55;;;;;;;72.93;51.28;;;18.70;41.40;;;;;;4964111;28;91781;-76
2022/03/07 09:09:20;;;;;;;73.55;50.67;;;18.80;41.70;;;;;;4979006;28;89500;-76
2022/03/07 09:11:47;;;;;;;69.68;50.63;;;18.90;41.80;;;;;;4976250;28;94487;-76
2022/03/07 09:14:14;;;;;;;70.30;50.80;;;19.00;41.70;;;;;;4979904;28;92241;-77
2022/03/07 09:16:40;;;;;;;71.15;50.83;;;19.00;41.20;;;;;;4978735;28;93670;-75
2022/03/07 09:19:05;;;;;;;71.50;50.85;;;19.10;41.10;;;;;;4977397;28;90977;-76
2022/03/07 09:21:31;;;;;;;72.03;50.90;;;19.10;41.00;;;;;;4953194;28;95299;-75
2022/03/07 09:24:00;;;;;;;70.93;50.67;;;19.10;41.20;;;;;;5004212;22;97021;-75
2022/03/07 09:26:26;;;;;;;70.10;50.78;;;19.20;40.50;;;;;;4913059;28;91238;-75
2022/03/07 09:28:51;;;;;;;69.28;50.67;;;19.20;40.50;;;;;;4925999;28;95767;-76
2022/03/07 09:31:17;;;;;;;72.05;50.55;;;19.30;40.50;;;;;;4915644;28;90094;-77
2022/03/07 09:33:43;;;;;;;70.68;50.75;;;19.30;40.30;;;;;;4924395;28;90321;-76
2022/03/07 09:36:08;;;;;;;70.65;50.85;;;19.30;40.30;;;;;;4913199;28;90866;-76
2022/03/07 09:38:36;;;;;;;72.40;50.88;;;19.30;40.40;;;;;;4926630;28;93413;-75
2022/03/07 09:41:02;;;;;;;69.38;50.47;;;19.30;40.20;;;;;;4936874;28;92251;-77
2022/03/07 09:43:27;;;;;;;71.18;50.80;;;19.30;40.10;;;;;;4931611;28;92650;-76
2022/03/07 09:45:53;;;;;;;75.15;50.45;;;19.40;40.20;;;;;;4916677;28;91274;-77
2022/03/07 09:48:22;;;;;;;69.97;50.58;;;19.40;40.00;;;;;;4916226;28;91137;-75
2022/03/07 09:50:48;;;;;;;70.85;50.63;;;19.40;40.00;;;;;;4917070;28;91504;-76
2022/03/07 09:53:16;;;;;;;68.80;50.42;;;19.40;39.00;;;;;;4936859;28;92878;-76
2022/03/07 09:55:42;;;;;;;69.28;50.63;;;19.30;38.60;;;;;;4925575;28;91644;-75
2022/03/07 09:58:08;;;;;;;69.93;50.15;;;19.30;38.70;;;;;;4912770;28;90108;-75
2022/03/07 10:00:35;;;;;;;95.07;51.72;;;19.30;38.70;;;;;;4925157;28;93883;-76
2022/03/07 10:03:05;;;;;;;114.10;52.72;;;19.30;38.70;;;;;;4914457;28;91714;-75
2022/03/07 10:05:37;;;;;;;83.17;51.90;;;19.20;39.10;;;;;;4926122;28;96779;-75
2022/03/07 10:08:04;;;;;;;81.63;51.13;;;19.20;39.10;;;;;;4935617;28;89770;-76
2022/03/07 10:10:32;;;;;;;77.32;51.00;;;19.20;39.10;;;;;;4933474;28;90288;-76
2022/03/07 10:13:06;;;;;;;70.28;50.80;;;19.20;39.20;;;;;;4927705;28;91737;-77
2022/03/07 10:15:32;;;;;;;72.15;50.22;;;19.20;39.30;;;;;;4933640;28;89606;-75
2022/03/07 10:17:57;;;;;;;74.75;50.53;;;19.20;39.40;;;;;;4931813;28;90201;-76
2022/03/07 10:20:25;;;;;;;77.38;50.85;;;19.20;39.50;;;;;;4930521;28;95952;-75
2022/03/07 10:22:56;;;;;;;71.13;50.47;;;19.10;39.60;;;;;;4927394;28;89961;-74
2022/03/07 10:25:25;;;;;;;75.75;50.60;;;19.10;39.60;;;;;;4912982;28;89907;-77
2022/03/07 10:27:52;;;;;;;73.15;50.55;;;19.10;39.70;;;;;;4926311;28;90508;-76
2022/03/07 10:30:25;;;;;;;77.32;50.67;;;19.00;40.00;;;;;;4911248;28;92112;-75
2022/03/07 10:33:06;;;;;;;77.57;50.88;;;19.10;40.20;;;;;;4910449;28;93725;-76
2022/03/07 10:35:42;;;;;;;73.43;51.00;;;19.00;40.10;;;;;;4900906;28;93564;-76
2022/03/07 10:38:17;;;;;;;71.22;50.20;;;19.00;40.50;;;;;;4922781;28;90358;-76
2022/03/07 10:40:51;;;;;;;72.90;50.35;;;19.10;40.20;;;;;;4935002;28;92196;-76
2022/03/07 10:43:18;;;;;;;69.72;50.80;;;19.10;40.00;;;;;;4921465;28;90644;-76
2022/03/07 10:45:55;;;;;;;72.72;50.33;;;19.10;39.80;;;;;;4932498;28;89790;-77
2022/03/07 10:48:22;;;;;;;68.97;50.28;;;19.10;39.90;;;;;;4913435;28;89905;-76
2022/03/07 10:50:54;;;;;;;70.15;50.30;;;19.10;39.80;;;;;;4929767;28;91508;-77
2022/03/07 10:53:20;;;;;;;69.68;50.05;;;19.00;39.80;;;;;;4923867;28;91241;-76
2022/03/07 10:55:56;;;;;;;70.25;50.38;;;19.00;39.90;;;;;;4918893;28;90833;-76
2022/03/07 10:58:22;;;;;;;69.05;50.05;;;19.00;39.80;;;;;;4917182;28;90798;-76
2022/03/07 11:00:54;;;;;;;71.45;50.17;;;19.00;40.00;;;;;;4914333;28;91355;-76
2022/03/07 11:03:32;;;;;;;69.68;50.35;;;19.00;40.00;;;;;;4916026;28;90301;-76
2022/03/07 11:05:59;;;;;;;67.80;49.90;;;19.00;40.10;;;;;;4911868;28;90064;-76
2022/03/07 11:08:24;;;;;;;68.07;50.10;;;19.00;40.20;;;;;;4925697;28;89950;-76
2022/03/07 11:10:53;;;;;;;70.57;50.10;;;19.00;40.20;;;;;;4917697;28;91018;-76
2022/03/07 11:13:20;;;;;;;70.25;49.97;;;19.00;40.30;;;;;;4914488;28;89865;-76
2022/03/07 11:15:47;;;;;;;68.60;50.15;;;19.00;40.30;;;;;;4929622;28;89768;-76
2022/03/07 11:18:16;;;;;;;69.25;50.40;;;19.00;40.30;;;;;;4917573;28;89639;-76
2022/03/07 11:20:44;;;;;;;69.97;50.72;;;19.00;40.40;;;;;;4933125;28;95017;-76
2022/03/07 11:23:18;;;;;;;69.68;50.25;;;19.00;40.60;;;;;;4923527;28;92067;-76
2022/03/07 11:25:45;;;;;;;71.82;50.42;;;19.20;40.70;;;;;;4917125;28;89936;-76
2022/03/07 11:28:11;;;;;;;71.03;50.35;;;19.20;40.70;;;;;;4918077;28;91528;-76
2022/03/07 11:30:42;;;;;;;69.15;50.35;;;19.30;40.60;;;;;;4912008;28;92733;-76
2022/03/07 11:33:16;;;;;;;68.83;50.10;;;19.40;40.60;;;;;;4914920;28;90081;-76
2022/03/07 11:35:47;;;;;;;70.78;50.40;;;19.50;40.50;;;;;;4916436;28;89723;-76
2022/03/07 11:38:18;;;;;;;69.60;50.22;;;19.60;40.50;;;;;;4919367;28;89579;-76
2022/03/07 11:40:58;;;;;;;68.72;50.33;;;19.60;40.30;;;;;;4917216;28;90069;-76
2022/03/07 11:43:25;;;;;;;69.20;50.05;;;19.70;40.20;;;;;;4928349;28;92933;-76
2022/03/07 11:45:53;;;;;;;68.78;49.95;;;19.70;40.10;;;;;;4919658;28;92478;-76
2022/03/07 11:48:22;;;;;;;72.10;50.58;;;19.80;40.10;;;;;;4916174;28;90698;-76
2022/03/07 11:50:48;;;;;;;68.70;50.17;;;19.90;40.40;;;;;;4920630;28;91455;-76
2022/03/07 11:53:16;;;;;;;68.88;50.28;;;19.90;40.00;;;;;;4918055;28;90927;-76
2022/03/07 11:55:45;;;;;;;68.97;50.47;;;19.90;40.00;;;;;;4917439;28;92130;-75
2022/03/07 11:58:11;;;;;;;68.82;50.40;;;20.00;39.90;;;;;;4919426;28;90257;-76
2022/03/07 12:00:38;;;;;;;69.68;50.10;;;20.00;39.90;;;;;;4910920;28;90026;-76
2022/03/07 12:03:13;;;;;;;68.88;50.33;;;20.00;39.80;;;;;;4913978;28;91297;-75
2022/03/07 12:05:40;;;;;;;69.03;50.17;;;20.00;39.70;;;;;;4918034;28;89835;-76
2022/03/07 12:08:17;;;;;;;69.07;50.30;;;20.10;39.80;;;;;;4915309;28;90442;-76
2022/03/07 12:10:54;;;;;;;68.25;49.95;;;20.10;39.80;;;;;;4918147;28;93264;-76
2022/03/07 12:13:19;;;;;;;70.03;49.97;;;20.00;39.80;;;;;;4913606;28;93878;-76
2022/03/07 12:15:52;;;;;;;69.07;50.28;;;20.00;39.70;;;;;;4920480;28;91269;-76
2022/03/07 12:18:19;;;;;;;67.80;50.03;;;20.00;39.70;;;;;;4918236;28;89866;-76
2022/03/07 12:20:54;;;;;;;67.85;50.33;;;20.10;39.80;;;;;;4912596;28;90489;-76
2022/03/07 12:23:21;;;;;;;68.22;50.25;;;20.00;39.70;;;;;;4917034;28;89896;-76